sensor_id;sensor_type;location;lat;lon;timestamp;P1;durP1;ratioP1;P2;durP2;ratioP2
17937;SDS011;16051;53.024;8.630;2022-12-18T00:03:29;28.97;;;15.20;;
17937;SDS011;16051;53.024;8.630;2022-12-18T00:07:32;32.33;;;16.50;;
17937;SDS011;16051;53.024;8.630;2022-12-18T00:11:34;28.70;;;15.80;;
17937;SDS011;16051;53.024;8.630;2022-12-18T00:15:44;26.00;;;14.83;;
17937;SDS011;16051;53.024;8.630;2022-12-18T00:19:47;31.03;;;16.00;;
17937;SDS011;16051;53.024;8.630;2022-12-18T00:23:50;34.47;;;15.57;;
17937;SDS011;16051;53.024;8.630;2022-12-18T00:27:53;27.40;;;13.80;;
17937;SDS011;16051;53.024;8.630;2022-12-18T00:31:55;30.00;;;15.87;;
17937;SDS011;16051;53.024;8.630;2022-12-18T00:36:14;29.90;;;15.63;;
17937;SDS011;16051;53.024;8.630;2022-12-18T00:40:19;25.57;;;14.10;;
17937;SDS011;16051;53.024;8.630;2022-12-18T00:44:21;25.90;;;14.60;;
17937;SDS011;16051;53.024;8.630;2022-12-18T00:48:23;38.27;;;16.83;;
17937;SDS011;16051;53.024;8.630;2022-12-18T00:52:26;37.93;;;16.97;;
17937;SDS011;16051;53.024;8.630;2022-12-18T01:00:41;25.60;;;14.67;;
17937;SDS011;16051;53.024;8.630;2022-12-18T01:04:44;22.43;;;13.63;;
17937;SDS011;16051;53.024;8.630;2022-12-18T01:08:46;31.57;;;16.83;;
17937;SDS011;16051;53.024;8.630;2022-12-18T01:12:57;37.90;;;18.87;;
17937;SDS011;16051;53.024;8.630;2022-12-18T01:16:59;34.90;;;17.77;;
17937;SDS011;16051;53.024;8.630;2022-12-18T01:21:10;32.70;;;17.27;;
17937;SDS011;16051;53.024;8.630;2022-12-18T01:25:18;29.47;;;18.10;;
17937;SDS011;16051;53.024;8.630;2022-12-18T01:29:21;26.30;;;14.87;;
17937;SDS011;16051;53.024;8.630;2022-12-18T01:33:23;26.57;;;13.77;;
17937;SDS011;16051;53.024;8.630;2022-12-18T01:37:25;24.53;;;12.83;;
17937;SDS011;16051;53.024;8.630;2022-12-18T01:46:04;27.60;;;15.50;;
17937;SDS011;16051;53.024;8.630;2022-12-18T01:50:07;30.17;;;14.53;;
17937;SDS011;16051;53.024;8.630;2022-12-18T01:54:12;23.60;;;13.87;;
17937;SDS011;16051;53.024;8.630;2022-12-18T02:02:56;25.73;;;13.50;;
17937;SDS011;16051;53.024;8.630;2022-12-18T02:06:59;26.40;;;14.03;;
17937;SDS011;16051;53.024;8.630;2022-12-18T02:11:32;23.20;;;12.73;;
17937;SDS011;16051;53.024;8.630;2022-12-18T02:15:48;22.67;;;13.60;;
17937;SDS011;16051;53.024;8.630;2022-12-18T02:20:04;19.83;;;13.00;;
17937;SDS011;16051;53.024;8.630;2022-12-18T02:24:17;22.80;;;12.97;;
17937;SDS011;16051;53.024;8.630;2022-12-18T02:28:36;21.30;;;13.63;;
17937;SDS011;16051;53.024;8.630;2022-12-18T02:32:47;20.40;;;12.93;;
17937;SDS011;16051;53.024;8.630;2022-12-18T02:36:54;26.17;;;13.60;;
17937;SDS011;16051;53.024;8.630;2022-12-18T02:40:59;25.67;;;13.30;;
17937;SDS011;16051;53.024;8.630;2022-12-18T02:45:05;22.83;;;12.03;;
17937;SDS011;16051;53.024;8.630;2022-12-18T02:49:11;20.83;;;12.07;;
17937;SDS011;16051;53.024;8.630;2022-12-18T02:53:27;19.90;;;11.53;;
17937;SDS011;16051;53.024;8.630;2022-12-18T02:57:45;22.10;;;12.73;;
17937;SDS011;16051;53.024;8.630;2022-12-18T03:01:56;23.90;;;12.50;;
17937;SDS011;16051;53.024;8.630;2022-12-18T03:06:10;19.17;;;11.20;;
17937;SDS011;16051;53.024;8.630;2022-12-18T03:10:19;24.90;;;12.53;;
17937;SDS011;16051;53.024;8.630;2022-12-18T03:14:29;23.63;;;13.37;;
17937;SDS011;16051;53.024;8.630;2022-12-18T03:18:36;24.43;;;13.20;;
17937;SDS011;16051;53.024;8.630;2022-12-18T03:22:45;22.47;;;11.43;;
17937;SDS011;16051;53.024;8.630;2022-12-18T03:26:54;19.67;;;11.10;;
17937;SDS011;16051;53.024;8.630;2022-12-18T03:31:03;15.80;;;11.30;;
17937;SDS011;16051;53.024;8.630;2022-12-18T03:35:13;20.00;;;12.27;;
17937;SDS011;16051;53.024;8.630;2022-12-18T03:39:24;17.90;;;11.13;;
17937;SDS011;16051;53.024;8.630;2022-12-18T03:43:30;21.10;;;11.50;;
17937;SDS011;16051;53.024;8.630;2022-12-18T03:47:44;18.20;;;10.30;;
17937;SDS011;16051;53.024;8.630;2022-12-18T03:52:02;16.40;;;10.77;;
17937;SDS011;16051;53.024;8.630;2022-12-18T03:56:10;22.57;;;10.93;;
17937;SDS011;16051;53.024;8.630;2022-12-18T04:00:17;17.50;;;10.17;;
17937;SDS011;16051;53.024;8.630;2022-12-18T04:04:21;16.13;;;10.27;;
17937;SDS011;16051;53.024;8.630;2022-12-18T04:08:26;15.97;;;10.07;;
17937;SDS011;16051;53.024;8.630;2022-12-18T04:12:29;18.30;;;10.13;;
17937;SDS011;16051;53.024;8.630;2022-12-18T04:16:47;17.57;;;10.10;;
17937;SDS011;16051;53.024;8.630;2022-12-18T04:20:49;19.97;;;10.10;;
17937;SDS011;16051;53.024;8.630;2022-12-18T04:24:52;16.17;;;9.50;;
17937;SDS011;16051;53.024;8.630;2022-12-18T04:28:54;16.87;;;9.30;;
17937;SDS011;16051;53.024;8.630;2022-12-18T04:32:56;16.57;;;9.77;;
17937;SDS011;16051;53.024;8.630;2022-12-18T04:41:21;17.33;;;9.20;;
17937;SDS011;16051;53.024;8.630;2022-12-18T04:45:23;13.80;;;8.40;;
17937;SDS011;16051;53.024;8.630;2022-12-18T04:49:25;18.03;;;9.97;;
17937;SDS011;16051;53.024;8.630;2022-12-18T04:53:27;14.70;;;9.10;;
17937;SDS011;16051;53.024;8.630;2022-12-18T04:57:41;20.13;;;10.43;;
17937;SDS011;16051;53.024;8.630;2022-12-18T05:01:43;16.97;;;9.57;;
17937;SDS011;16051;53.024;8.630;2022-12-18T05:05:48;13.73;;;9.03;;
17937;SDS011;16051;53.024;8.630;2022-12-18T05:09:50;16.90;;;8.60;;
17937;SDS011;16051;53.024;8.630;2022-12-18T05:13:54;14.73;;;8.90;;
17937;SDS011;16051;53.024;8.630;2022-12-18T05:17:56;15.07;;;8.60;;
17937;SDS011;16051;53.024;8.630;2022-12-18T05:21:59;16.13;;;9.07;;
17937;SDS011;16051;53.024;8.630;2022-12-18T05:26:03;12.93;;;8.53;;
17937;SDS011;16051;53.024;8.630;2022-12-18T05:30:09;16.63;;;8.47;;
17937;SDS011;16051;53.024;8.630;2022-12-18T05:34:13;12.10;;;8.33;;
17937;SDS011;16051;53.024;8.630;2022-12-18T05:38:15;18.00;;;9.93;;
17937;SDS011;16051;53.024;8.630;2022-12-18T05:42:17;15.90;;;9.73;;
17937;SDS011;16051;53.024;8.630;2022-12-18T05:46:21;17.60;;;9.03;;
17937;SDS011;16051;53.024;8.630;2022-12-18T05:50:24;11.87;;;8.20;;
17937;SDS011;16051;53.024;8.630;2022-12-18T05:54:26;14.27;;;8.67;;
17937;SDS011;16051;53.024;8.630;2022-12-18T05:58:28;13.50;;;8.00;;
17937;SDS011;16051;53.024;8.630;2022-12-18T06:02:33;14.27;;;8.10;;
17937;SDS011;16051;53.024;8.630;2022-12-18T06:06:35;13.50;;;7.37;;
17937;SDS011;16051;53.024;8.630;2022-12-18T06:10:37;9.50;;;6.73;;
17937;SDS011;16051;53.024;8.630;2022-12-18T06:14:40;13.10;;;7.90;;
17937;SDS011;16051;53.024;8.630;2022-12-18T06:18:53;13.10;;;7.97;;
17937;SDS011;16051;53.024;8.630;2022-12-18T06:22:58;11.63;;;7.30;;
17937;SDS011;16051;53.024;8.630;2022-12-18T06:27:09;14.33;;;7.07;;
17937;SDS011;16051;53.024;8.630;2022-12-18T06:31:12;11.93;;;6.83;;
17937;SDS011;16051;53.024;8.630;2022-12-18T06:35:15;11.43;;;7.40;;
17937;SDS011;16051;53.024;8.630;2022-12-18T06:39:17;10.90;;;7.37;;
17937;SDS011;16051;53.024;8.630;2022-12-18T06:43:19;15.77;;;7.60;;
17937;SDS011;16051;53.024;8.630;2022-12-18T06:51:42;12.60;;;6.77;;
17937;SDS011;16051;53.024;8.630;2022-12-18T06:55:44;10.83;;;6.50;;
17937;SDS011;16051;53.024;8.630;2022-12-18T06:59:46;12.37;;;7.27;;
17937;SDS011;16051;53.024;8.630;2022-12-18T07:03:51;12.03;;;6.90;;
17937;SDS011;16051;53.024;8.630;2022-12-18T07:08:13;16.13;;;7.83;;
17937;SDS011;16051;53.024;8.630;2022-12-18T07:12:16;12.93;;;7.33;;
17937;SDS011;16051;53.024;8.630;2022-12-18T07:16:18;14.03;;;7.53;;
17937;SDS011;16051;53.024;8.630;2022-12-18T07:20:21;16.73;;;8.93;;
17937;SDS011;16051;53.024;8.630;2022-12-18T07:24:25;12.93;;;7.93;;
17937;SDS011;16051;53.024;8.630;2022-12-18T07:28:42;11.90;;;8.03;;
17937;SDS011;16051;53.024;8.630;2022-12-18T07:32:44;13.60;;;7.73;;
17937;SDS011;16051;53.024;8.630;2022-12-18T07:36:46;12.23;;;7.83;;
17937;SDS011;16051;53.024;8.630;2022-12-18T07:40:50;12.93;;;7.33;;
17937;SDS011;16051;53.024;8.630;2022-12-18T07:44:52;16.53;;;7.93;;
17937;SDS011;16051;53.024;8.630;2022-12-18T07:48:54;12.20;;;7.90;;
17937;SDS011;16051;53.024;8.630;2022-12-18T07:52:56;11.57;;;7.00;;
17937;SDS011;16051;53.024;8.630;2022-12-18T07:56:59;14.40;;;7.53;;
17937;SDS011;16051;53.024;8.630;2022-12-18T08:01:03;13.07;;;7.13;;
17937;SDS011;16051;53.024;8.630;2022-12-18T08:05:13;10.37;;;7.17;;
17937;SDS011;16051;53.024;8.630;2022-12-18T08:09:15;12.43;;;7.57;;
17937;SDS011;16051;53.024;8.630;2022-12-18T08:13:18;12.57;;;7.17;;
17937;SDS011;16051;53.024;8.630;2022-12-18T08:17:21;12.80;;;6.70;;
17937;SDS011;16051;53.024;8.630;2022-12-18T08:21:25;13.97;;;8.13;;
17937;SDS011;16051;53.024;8.630;2022-12-18T08:25:30;10.20;;;6.67;;
17937;SDS011;16051;53.024;8.630;2022-12-18T08:29:34;15.63;;;7.40;;
17937;SDS011;16051;53.024;8.630;2022-12-18T08:33:52;10.07;;;7.60;;
17937;SDS011;16051;53.024;8.630;2022-12-18T08:37:55;13.73;;;7.47;;
17937;SDS011;16051;53.024;8.630;2022-12-18T08:41:57;14.57;;;8.13;;
17937;SDS011;16051;53.024;8.630;2022-12-18T08:46:32;14.70;;;8.67;;
17937;SDS011;16051;53.024;8.630;2022-12-18T08:50:37;12.60;;;8.00;;
17937;SDS011;16051;53.024;8.630;2022-12-18T08:54:39;12.93;;;7.90;;
17937;SDS011;16051;53.024;8.630;2022-12-18T08:58:42;13.13;;;7.50;;
17937;SDS011;16051;53.024;8.630;2022-12-18T09:02:46;17.10;;;8.20;;
17937;SDS011;16051;53.024;8.630;2022-12-18T09:06:49;12.67;;;7.27;;
17937;SDS011;16051;53.024;8.630;2022-12-18T09:10:51;14.47;;;8.37;;
17937;SDS011;16051;53.024;8.630;2022-12-18T09:14:58;12.03;;;7.70;;
17937;SDS011;16051;53.024;8.630;2022-12-18T09:19:05;11.13;;;7.07;;
17937;SDS011;16051;53.024;8.630;2022-12-18T09:23:07;15.43;;;7.50;;
17937;SDS011;16051;53.024;8.630;2022-12-18T09:27:12;14.03;;;8.20;;
17937;SDS011;16051;53.024;8.630;2022-12-18T09:35:46;14.90;;;8.87;;
17937;SDS011;16051;53.024;8.630;2022-12-18T09:39:48;13.93;;;9.30;;
17937;SDS011;16051;53.024;8.630;2022-12-18T09:44:05;15.10;;;8.47;;
17937;SDS011;16051;53.024;8.630;2022-12-18T09:48:20;12.20;;;7.87;;
17937;SDS011;16051;53.024;8.630;2022-12-18T09:52:32;14.53;;;8.87;;
17937;SDS011;16051;53.024;8.630;2022-12-18T09:56:40;16.77;;;9.33;;
17937;SDS011;16051;53.024;8.630;2022-12-18T10:00:44;13.80;;;8.43;;
17937;SDS011;16051;53.024;8.630;2022-12-18T10:04:55;14.73;;;9.10;;
17937;SDS011;16051;53.024;8.630;2022-12-18T10:09:08;13.07;;;9.27;;
17937;SDS011;16051;53.024;8.630;2022-12-18T10:13:22;13.67;;;9.10;;
17937;SDS011;16051;53.024;8.630;2022-12-18T10:17:41;19.83;;;10.17;;
17937;SDS011;16051;53.024;8.630;2022-12-18T10:21:59;15.47;;;9.37;;
17937;SDS011;16051;53.024;8.630;2022-12-18T10:26:15;14.57;;;10.37;;
17937;SDS011;16051;53.024;8.630;2022-12-18T10:30:20;16.27;;;9.43;;
17937;SDS011;16051;53.024;8.630;2022-12-18T10:34:34;15.57;;;10.03;;
17937;SDS011;16051;53.024;8.630;2022-12-18T10:38:36;17.13;;;9.67;;
17937;SDS011;16051;53.024;8.630;2022-12-18T10:42:40;13.57;;;8.73;;
17937;SDS011;16051;53.024;8.630;2022-12-18T10:46:44;11.70;;;8.57;;
17937;SDS011;16051;53.024;8.630;2022-12-18T10:50:55;15.10;;;8.80;;
17937;SDS011;16051;53.024;8.630;2022-12-18T10:55:06;11.93;;;8.47;;
17937;SDS011;16051;53.024;8.630;2022-12-18T10:59:30;13.10;;;8.27;;
17937;SDS011;16051;53.024;8.630;2022-12-18T11:04:00;13.90;;;8.47;;
17937;SDS011;16051;53.024;8.630;2022-12-18T11:08:19;13.37;;;9.60;;
17937;SDS011;16051;53.024;8.630;2022-12-18T11:12:34;15.70;;;9.07;;
17937;SDS011;16051;53.024;8.630;2022-12-18T11:16:44;17.57;;;10.57;;
17937;SDS011;16051;53.024;8.630;2022-12-18T11:20:56;18.57;;;10.60;;
17937;SDS011;16051;53.024;8.630;2022-12-18T11:25:18;24.07;;;11.87;;
17937;SDS011;16051;53.024;8.630;2022-12-18T11:29:32;23.20;;;13.97;;
17937;SDS011;16051;53.024;8.630;2022-12-18T11:33:41;20.80;;;12.07;;
17937;SDS011;16051;53.024;8.630;2022-12-18T11:37:49;19.20;;;11.97;;
17937;SDS011;16051;53.024;8.630;2022-12-18T11:42:02;17.43;;;10.27;;
17937;SDS011;16051;53.024;8.630;2022-12-18T11:46:13;16.37;;;10.07;;
17937;SDS011;16051;53.024;8.630;2022-12-18T11:50:44;20.33;;;10.30;;
17937;SDS011;16051;53.024;8.630;2022-12-18T11:54:52;17.90;;;10.63;;
17937;SDS011;16051;53.024;8.630;2022-12-18T12:03:20;15.70;;;9.83;;
17937;SDS011;16051;53.024;8.630;2022-12-18T12:07:46;12.40;;;8.77;;
17937;SDS011;16051;53.024;8.630;2022-12-18T12:12:10;15.77;;;9.00;;
17937;SDS011;16051;53.024;8.630;2022-12-18T12:21:20;14.73;;;10.10;;
17937;SDS011;16051;53.024;8.630;2022-12-18T12:25:33;14.40;;;9.40;;
17937;SDS011;16051;53.024;8.630;2022-12-18T12:29:55;12.43;;;8.73;;
17937;SDS011;16051;53.024;8.630;2022-12-18T12:34:09;12.20;;;7.50;;
17937;SDS011;16051;53.024;8.630;2022-12-18T12:42:39;14.43;;;8.00;;
17937;SDS011;16051;53.024;8.630;2022-12-18T12:47:07;14.37;;;8.27;;
17937;SDS011;16051;53.024;8.630;2022-12-18T12:51:18;14.43;;;7.93;;
17937;SDS011;16051;53.024;8.630;2022-12-18T12:55:25;13.50;;;8.40;;
17937;SDS011;16051;53.024;8.630;2022-12-18T12:59:32;11.67;;;7.03;;
17937;SDS011;16051;53.024;8.630;2022-12-18T13:08:55;13.17;;;7.73;;
17937;SDS011;16051;53.024;8.630;2022-12-18T13:13:01;12.10;;;8.00;;
17937;SDS011;16051;53.024;8.630;2022-12-18T13:21:52;21.67;;;16.07;;
17937;SDS011;16051;53.024;8.630;2022-12-18T13:39:56;13.10;;;8.97;;
17937;SDS011;16051;53.024;8.630;2022-12-18T13:44:10;16.60;;;10.07;;
17937;SDS011;16051;53.024;8.630;2022-12-18T13:48:21;19.77;;;10.90;;
17937;SDS011;16051;53.024;8.630;2022-12-18T13:52:28;15.77;;;9.93;;
17937;SDS011;16051;53.024;8.630;2022-12-18T13:56:43;18.03;;;10.33;;
17937;SDS011;16051;53.024;8.630;2022-12-18T14:00:57;13.70;;;9.23;;
17937;SDS011;16051;53.024;8.630;2022-12-18T14:09:34;13.97;;;8.60;;
17937;SDS011;16051;53.024;8.630;2022-12-18T14:13:50;10.93;;;7.50;;
17937;SDS011;16051;53.024;8.630;2022-12-18T14:17:54;22.50;;;13.27;;
17937;SDS011;16051;53.024;8.630;2022-12-18T14:21:59;9.43;;;6.93;;
17937;SDS011;16051;53.024;8.630;2022-12-18T14:26:02;14.67;;;8.83;;
17937;SDS011;16051;53.024;8.630;2022-12-18T14:30:33;12.83;;;8.03;;
17937;SDS011;16051;53.024;8.630;2022-12-18T14:34:38;12.70;;;7.47;;
17937;SDS011;16051;53.024;8.630;2022-12-18T14:38:43;14.60;;;7.40;;
17937;SDS011;16051;53.024;8.630;2022-12-18T14:42:51;9.77;;;7.07;;
17937;SDS011;16051;53.024;8.630;2022-12-18T14:46:55;11.33;;;6.70;;
17937;SDS011;16051;53.024;8.630;2022-12-18T14:50:58;9.37;;;6.20;;
17937;SDS011;16051;53.024;8.630;2022-12-18T14:55:03;12.03;;;7.30;;
17937;SDS011;16051;53.024;8.630;2022-12-18T14:59:12;20.90;;;13.80;;
17937;SDS011;16051;53.024;8.630;2022-12-18T15:07:39;11.57;;;7.63;;
17937;SDS011;16051;53.024;8.630;2022-12-18T15:11:56;8.60;;;6.50;;
17937;SDS011;16051;53.024;8.630;2022-12-18T15:16:02;10.10;;;7.23;;
17937;SDS011;16051;53.024;8.630;2022-12-18T15:20:16;11.07;;;7.20;;
17937;SDS011;16051;53.024;8.630;2022-12-18T15:24:20;14.60;;;7.40;;
17937;SDS011;16051;53.024;8.630;2022-12-18T15:28:31;10.07;;;6.40;;
17937;SDS011;16051;53.024;8.630;2022-12-18T15:32:42;9.23;;;6.80;;
17937;SDS011;16051;53.024;8.630;2022-12-18T15:37:01;9.30;;;6.73;;
17937;SDS011;16051;53.024;8.630;2022-12-18T15:41:10;11.43;;;6.10;;
17937;SDS011;16051;53.024;8.630;2022-12-18T15:45:15;9.30;;;6.60;;
17937;SDS011;16051;53.024;8.630;2022-12-18T15:49:17;9.97;;;6.70;;
17937;SDS011;16051;53.024;8.630;2022-12-18T15:53:22;13.10;;;7.33;;
17937;SDS011;16051;53.024;8.630;2022-12-18T15:57:25;12.40;;;7.57;;
17937;SDS011;16051;53.024;8.630;2022-12-18T16:01:30;14.33;;;9.27;;
17937;SDS011;16051;53.024;8.630;2022-12-18T16:05:32;15.60;;;9.60;;
17937;SDS011;16051;53.024;8.630;2022-12-18T16:09:40;27.17;;;12.67;;
17937;SDS011;16051;53.024;8.630;2022-12-18T16:13:48;16.13;;;9.73;;
17937;SDS011;16051;53.024;8.630;2022-12-18T16:17:58;11.10;;;7.53;;
17937;SDS011;16051;53.024;8.630;2022-12-18T16:22:08;9.73;;;6.70;;
17937;SDS011;16051;53.024;8.630;2022-12-18T16:26:23;14.90;;;8.77;;
17937;SDS011;16051;53.024;8.630;2022-12-18T16:30:28;11.77;;;7.10;;
17937;SDS011;16051;53.024;8.630;2022-12-18T16:34:41;12.17;;;6.87;;
17937;SDS011;16051;53.024;8.630;2022-12-18T16:38:45;13.70;;;7.37;;
17937;SDS011;16051;53.024;8.630;2022-12-18T16:42:57;12.50;;;8.77;;
17937;SDS011;16051;53.024;8.630;2022-12-18T16:47:02;10.33;;;7.33;;
17937;SDS011;16051;53.024;8.630;2022-12-18T16:51:04;68.27;;;26.77;;
17937;SDS011;16051;53.024;8.630;2022-12-18T16:55:07;14.20;;;8.23;;
17937;SDS011;16051;53.024;8.630;2022-12-18T16:59:11;17.33;;;10.83;;
17937;SDS011;16051;53.024;8.630;2022-12-18T17:03:21;54.37;;;20.37;;
17937;SDS011;16051;53.024;8.630;2022-12-18T17:07:24;13.17;;;8.03;;
17937;SDS011;16051;53.024;8.630;2022-12-18T17:11:36;12.80;;;7.87;;
17937;SDS011;16051;53.024;8.630;2022-12-18T17:15:54;15.27;;;8.50;;
17937;SDS011;16051;53.024;8.630;2022-12-18T17:20:15;13.43;;;8.17;;
17937;SDS011;16051;53.024;8.630;2022-12-18T17:24:18;14.40;;;8.77;;
17937;SDS011;16051;53.024;8.630;2022-12-18T17:28:21;17.23;;;9.03;;
17937;SDS011;16051;53.024;8.630;2022-12-18T17:32:26;14.03;;;8.50;;
17937;SDS011;16051;53.024;8.630;2022-12-18T17:36:39;13.87;;;7.73;;
17937;SDS011;16051;53.024;8.630;2022-12-18T17:40:41;10.70;;;7.03;;
17937;SDS011;16051;53.024;8.630;2022-12-18T17:44:51;10.93;;;7.50;;
17937;SDS011;16051;53.024;8.630;2022-12-18T17:48:55;16.40;;;8.30;;
17937;SDS011;16051;53.024;8.630;2022-12-18T17:53:01;11.67;;;7.13;;
17937;SDS011;16051;53.024;8.630;2022-12-18T17:57:04;14.43;;;8.00;;
17937;SDS011;16051;53.024;8.630;2022-12-18T18:01:07;14.37;;;8.10;;
17937;SDS011;16051;53.024;8.630;2022-12-18T18:05:29;11.67;;;7.80;;
17937;SDS011;16051;53.024;8.630;2022-12-18T18:09:32;11.53;;;7.93;;
17937;SDS011;16051;53.024;8.630;2022-12-18T18:13:34;14.70;;;8.00;;
17937;SDS011;16051;53.024;8.630;2022-12-18T18:17:59;13.80;;;7.70;;
17937;SDS011;16051;53.024;8.630;2022-12-18T18:22:08;15.40;;;9.10;;
17937;SDS011;16051;53.024;8.630;2022-12-18T18:26:13;13.10;;;7.53;;
17937;SDS011;16051;53.024;8.630;2022-12-18T18:30:15;11.63;;;8.20;;
17937;SDS011;16051;53.024;8.630;2022-12-18T18:34:25;12.27;;;7.73;;
17937;SDS011;16051;53.024;8.630;2022-12-18T18:38:30;14.17;;;8.60;;
17937;SDS011;16051;53.024;8.630;2022-12-18T18:42:32;15.57;;;9.07;;
17937;SDS011;16051;53.024;8.630;2022-12-18T18:46:34;12.43;;;8.63;;
17937;SDS011;16051;53.024;8.630;2022-12-18T18:50:36;19.30;;;10.47;;
17937;SDS011;16051;53.024;8.630;2022-12-18T18:54:40;13.13;;;8.73;;
17937;SDS011;16051;53.024;8.630;2022-12-18T18:58:43;16.93;;;9.10;;
17937;SDS011;16051;53.024;8.630;2022-12-18T19:03:03;15.20;;;9.03;;
17937;SDS011;16051;53.024;8.630;2022-12-18T19:07:06;16.20;;;8.17;;
17937;SDS011;16051;53.024;8.630;2022-12-18T19:15:50;14.13;;;8.50;;
17937;SDS011;16051;53.024;8.630;2022-12-18T19:20:15;14.17;;;9.40;;
17937;SDS011;16051;53.024;8.630;2022-12-18T19:24:17;10.83;;;7.57;;
17937;SDS011;16051;53.024;8.630;2022-12-18T19:28:23;13.33;;;8.60;;
17937;SDS011;16051;53.024;8.630;2022-12-18T19:32:27;14.03;;;8.27;;
17937;SDS011;16051;53.024;8.630;2022-12-18T19:36:31;11.37;;;7.80;;
17937;SDS011;16051;53.024;8.630;2022-12-18T19:40:38;13.30;;;8.53;;
17937;SDS011;16051;53.024;8.630;2022-12-18T19:44:45;13.13;;;7.93;;
17937;SDS011;16051;53.024;8.630;2022-12-18T19:48:47;10.00;;;7.20;;
17937;SDS011;16051;53.024;8.630;2022-12-18T19:52:57;13.17;;;8.63;;
17937;SDS011;16051;53.024;8.630;2022-12-18T19:56:59;10.97;;;7.97;;
17937;SDS011;16051;53.024;8.630;2022-12-18T20:01:03;13.03;;;7.57;;
17937;SDS011;16051;53.024;8.630;2022-12-18T20:05:14;12.53;;;7.80;;
17937;SDS011;16051;53.024;8.630;2022-12-18T20:09:16;17.00;;;9.80;;
17937;SDS011;16051;53.024;8.630;2022-12-18T20:13:19;10.77;;;7.77;;
17937;SDS011;16051;53.024;8.630;2022-12-18T20:17:22;13.63;;;7.50;;
17937;SDS011;16051;53.024;8.630;2022-12-18T20:25:59;11.07;;;7.70;;
17937;SDS011;16051;53.024;8.630;2022-12-18T20:30:02;11.80;;;7.43;;
17937;SDS011;16051;53.024;8.630;2022-12-18T20:34:06;11.27;;;7.20;;
17937;SDS011;16051;53.024;8.630;2022-12-18T20:38:08;11.90;;;6.53;;
17937;SDS011;16051;53.024;8.630;2022-12-18T20:42:11;10.57;;;6.60;;
17937;SDS011;16051;53.024;8.630;2022-12-18T20:46:26;8.73;;;6.30;;
17937;SDS011;16051;53.024;8.630;2022-12-18T20:50:35;10.97;;;6.00;;
17937;SDS011;16051;53.024;8.630;2022-12-18T20:54:50;9.93;;;6.53;;
17937;SDS011;16051;53.024;8.630;2022-12-18T20:58:55;10.20;;;7.37;;
17937;SDS011;16051;53.024;8.630;2022-12-18T21:03:00;10.13;;;5.70;;
17937;SDS011;16051;53.024;8.630;2022-12-18T21:11:38;10.00;;;5.50;;
17937;SDS011;16051;53.024;8.630;2022-12-18T21:15:58;8.20;;;5.13;;
17937;SDS011;16051;53.024;8.630;2022-12-18T21:20:00;8.87;;;6.00;;
17937;SDS011;16051;53.024;8.630;2022-12-18T21:24:04;7.87;;;5.67;;
17937;SDS011;16051;53.024;8.630;2022-12-18T21:28:09;7.63;;;5.17;;
17937;SDS011;16051;53.024;8.630;2022-12-18T21:32:12;8.23;;;5.20;;
17937;SDS011;16051;53.024;8.630;2022-12-18T21:36:14;8.73;;;5.33;;
17937;SDS011;16051;53.024;8.630;2022-12-18T21:40:18;9.67;;;5.60;;
17937;SDS011;16051;53.024;8.630;2022-12-18T21:44:20;10.07;;;5.90;;
17937;SDS011;16051;53.024;8.630;2022-12-18T21:48:29;9.00;;;5.50;;
17937;SDS011;16051;53.024;8.630;2022-12-18T21:52:32;9.63;;;6.57;;
17937;SDS011;16051;53.024;8.630;2022-12-18T21:56:46;9.57;;;6.67;;
17937;SDS011;16051;53.024;8.630;2022-12-18T22:01:00;8.80;;;5.97;;
17937;SDS011;16051;53.024;8.630;2022-12-18T22:05:03;8.73;;;5.90;;
17937;SDS011;16051;53.024;8.630;2022-12-18T22:09:05;11.37;;;6.67;;
17937;SDS011;16051;53.024;8.630;2022-12-18T22:13:09;10.70;;;6.90;;
17937;SDS011;16051;53.024;8.630;2022-12-18T22:21:21;10.67;;;6.83;;
17937;SDS011;16051;53.024;8.630;2022-12-18T22:25:25;11.83;;;7.63;;
17937;SDS011;16051;53.024;8.630;2022-12-18T22:34:07;12.73;;;7.10;;
17937;SDS011;16051;53.024;8.630;2022-12-18T22:38:10;14.50;;;8.07;;
17937;SDS011;16051;53.024;8.630;2022-12-18T22:42:12;13.53;;;7.67;;
17937;SDS011;16051;53.024;8.630;2022-12-18T22:46:16;12.63;;;7.33;;
17937;SDS011;16051;53.024;8.630;2022-12-18T22:50:19;13.50;;;8.63;;
17937;SDS011;16051;53.024;8.630;2022-12-18T22:54:21;14.70;;;8.97;;
17937;SDS011;16051;53.024;8.630;2022-12-18T22:58:41;16.27;;;8.90;;
17937;SDS011;16051;53.024;8.630;2022-12-18T23:02:44;17.27;;;8.77;;
17937;SDS011;16051;53.024;8.630;2022-12-18T23:06:47;14.10;;;8.13;;
17937;SDS011;16051;53.024;8.630;2022-12-18T23:10:50;14.83;;;8.53;;
17937;SDS011;16051;53.024;8.630;2022-12-18T23:14:53;15.33;;;9.37;;
17937;SDS011;16051;53.024;8.630;2022-12-18T23:18:56;15.67;;;9.10;;
17937;SDS011;16051;53.024;8.630;2022-12-18T23:22:58;17.90;;;9.77;;
17937;SDS011;16051;53.024;8.630;2022-12-18T23:27:00;14.40;;;9.00;;
17937;SDS011;16051;53.024;8.630;2022-12-18T23:31:03;15.80;;;9.57;;
17937;SDS011;16051;53.024;8.630;2022-12-18T23:35:09;16.37;;;9.57;;
17937;SDS011;16051;53.024;8.630;2022-12-18T23:39:12;16.10;;;9.63;;
17937;SDS011;16051;53.024;8.630;2022-12-18T23:43:15;19.03;;;9.63;;
17937;SDS011;16051;53.024;8.630;2022-12-18T23:51:24;15.30;;;9.63;;
17937;SDS011;16051;53.024;8.630;2022-12-18T23:55:26;18.10;;;10.93;;
17937;SDS011;16051;53.024;8.630;2022-12-18T23:59:28;19.07;;;10.00;;
